createdAt,value
2022-09-28T00:03:52.196Z,3.35
2022-09-28T00:07:54.169Z,4.93
2022-09-28T00:11:56.919Z,2.90
2022-09-28T00:16:02.852Z,2.83
2022-09-28T00:20:05.662Z,4.43
2022-09-28T00:24:15.598Z,2.88
2022-09-28T00:32:18.832Z,3.90
2022-09-28T00:36:20.202Z,3.58
2022-09-28T00:40:21.735Z,2.35
2022-09-28T00:44:25.889Z,3.20
2022-09-28T00:48:32.050Z,3.83
2022-09-28T00:52:41.955Z,5.70
2022-09-28T01:00:47.995Z,6.57
2022-09-28T01:04:50.431Z,3.38
2022-09-28T01:08:53.637Z,6.43
2022-09-28T01:12:55.679Z,5.55
2022-09-28T01:17:10.750Z,5.10
2022-09-28T01:21:17.743Z,4.40
2022-09-28T01:25:40.681Z,3.88
2022-09-28T01:30:02.450Z,4.78
2022-09-28T01:34:11.839Z,4.32
2022-09-28T01:38:24.669Z,4.07
2022-09-28T01:42:31.416Z,6.35
2022-09-28T01:46:45.454Z,3.33
2022-09-28T01:50:50.942Z,4.60
2022-09-28T01:55:16.735Z,4.43
2022-09-28T01:59:32.225Z,6.63
2022-09-28T02:03:40.509Z,7.20
2022-09-28T02:07:48.518Z,8.10
2022-09-28T02:11:57.446Z,5.00
2022-09-28T02:16:05.676Z,5.87
2022-09-28T02:20:07.973Z,9.00
2022-09-28T02:24:40.824Z,10.05
2022-09-28T02:28:42.990Z,7.97
2022-09-28T02:32:48.579Z,7.40
2022-09-28T02:36:50.053Z,5.72
2022-09-28T02:41:04.572Z,5.90
2022-09-28T02:45:21.648Z,6.95
2022-09-28T02:49:46.953Z,8.63
2022-09-28T02:54:21.437Z,6.15
2022-09-28T02:58:41.279Z,6.03
2022-09-28T03:02:48.401Z,8.05
2022-09-28T03:06:59.734Z,7.68
2022-09-28T03:11:07.168Z,5.72
2022-09-28T03:15:13.995Z,7.85
2022-09-28T03:19:19.162Z,7.47
2022-09-28T03:23:24.766Z,7.25
2022-09-28T03:27:26.758Z,10.20
2022-09-28T03:31:28.521Z,9.30
2022-09-28T03:35:29.966Z,6.80
2022-09-28T03:39:31.400Z,7.22
2022-09-28T03:43:32.890Z,6.20
2022-09-28T03:47:34.257Z,6.18
2022-09-28T03:51:35.696Z,7.63
2022-09-28T03:55:38.280Z,7.05
2022-09-28T03:59:39.771Z,6.60
2022-09-28T04:03:41.540Z,9.10
2022-09-28T04:07:42.969Z,6.63
2022-09-28T04:12:02.759Z,7.40
2022-09-28T04:16:05.537Z,8.40
2022-09-28T04:20:07.451Z,6.35
2022-09-28T04:24:10.206Z,8.15
2022-09-28T04:28:30.129Z,7.38
2022-09-28T04:32:31.539Z,7.85
2022-09-28T04:36:33.157Z,7.53
2022-09-28T04:40:34.578Z,5.95
2022-09-28T04:44:35.987Z,5.32
2022-09-28T04:48:37.731Z,8.48
2022-09-28T04:52:39.110Z,7.15
2022-09-28T04:56:41.136Z,7.35
2022-09-28T05:00:42.620Z,9.43
2022-09-28T05:04:44.086Z,8.48
2022-09-28T05:08:47.198Z,7.50
2022-09-28T05:12:48.650Z,9.30
2022-09-28T05:16:50.162Z,7.65
2022-09-28T05:20:51.624Z,7.07
2022-09-28T05:24:54.682Z,7.45
2022-09-28T05:28:56.442Z,7.13
2022-09-28T05:32:57.833Z,3.25
2022-09-28T05:36:59.256Z,7.32
2022-09-28T05:41:05.705Z,6.35
2022-09-28T05:45:09.324Z,6.50
2022-09-28T05:49:10.834Z,6.43
2022-09-28T05:53:12.676Z,6.72
2022-09-28T05:57:14.403Z,7.70
2022-09-28T06:01:15.933Z,7.20
2022-09-28T06:05:17.314Z,9.05
2022-09-28T06:09:21.630Z,5.65
2022-09-28T06:13:25.248Z,7.68
2022-09-28T06:17:26.641Z,6.47
2022-09-28T06:21:28.129Z,6.13
2022-09-28T06:25:29.648Z,9.35
2022-09-28T06:29:31.298Z,5.68
2022-09-28T06:33:32.697Z,15.68
2022-09-28T06:37:34.127Z,8.25
2022-09-28T06:41:36.110Z,7.60
2022-09-28T06:45:38.723Z,9.18
2022-09-28T06:49:40.488Z,7.43
2022-09-28T06:53:42.404Z,10.85
2022-09-28T06:57:43.826Z,7.60
2022-09-28T07:01:45.736Z,8.85
2022-09-28T07:05:50.209Z,9.18
2022-09-28T07:09:55.633Z,7.78
2022-09-28T07:13:59.913Z,6.70
2022-09-28T07:18:04.208Z,7.10
2022-09-28T07:22:05.970Z,7.85
2022-09-28T07:26:09.134Z,7.82
2022-09-28T07:30:11.891Z,7.28
2022-09-28T07:34:13.892Z,5.95
2022-09-28T07:38:15.642Z,6.45
2022-09-28T07:42:17.013Z,7.50
2022-09-28T07:46:18.543Z,7.40
2022-09-28T07:50:21.214Z,10.45
2022-09-28T07:54:23.300Z,8.90
2022-09-28T07:58:24.742Z,6.32
2022-09-28T08:02:26.424Z,7.18
2022-09-28T08:06:30.289Z,5.28
2022-09-28T08:10:31.667Z,6.00
2022-09-28T08:14:34.277Z,5.60
2022-09-28T08:18:36.328Z,5.70
2022-09-28T08:22:38.671Z,5.60
2022-09-28T08:26:40.192Z,5.68
2022-09-28T08:30:41.792Z,4.22
2022-09-28T08:34:43.214Z,6.50
2022-09-28T08:38:44.630Z,3.85
2022-09-28T08:42:46.102Z,3.15
2022-09-28T08:46:52.197Z,3.10
2022-09-28T08:51:00.218Z,3.53
2022-09-28T08:55:15.268Z,4.85
2022-09-28T08:59:23.811Z,2.55
2022-09-28T09:03:32.503Z,6.78
2022-09-28T09:07:43.437Z,2.20
2022-09-28T09:12:18.809Z,4.25
2022-09-28T09:16:44.114Z,2.60
2022-09-28T09:20:51.716Z,2.97
2022-09-28T09:25:10.377Z,1.70
2022-09-28T09:29:28.089Z,2.25
2022-09-28T09:33:45.925Z,3.35
2022-09-28T09:38:00.124Z,2.78
2022-09-28T09:42:11.084Z,4.43
2022-09-28T09:46:40.658Z,3.22
2022-09-28T09:50:54.273Z,1.90
2022-09-28T09:55:02.666Z,1.92
2022-09-28T09:59:31.073Z,4.18
2022-09-28T10:03:36.751Z,5.97
2022-09-28T10:07:47.718Z,2.65
2022-09-28T10:11:50.217Z,2.75
2022-09-28T10:15:51.674Z,3.33
2022-09-28T10:19:56.815Z,4.53
2022-09-28T10:24:02.515Z,2.58
2022-09-28T10:28:06.823Z,4.45
2022-09-28T10:32:19.961Z,4.28
2022-09-28T10:36:21.353Z,4.30
2022-09-28T10:40:41.412Z,3.30
2022-09-28T10:45:04.173Z,4.78
2022-09-28T10:49:25.635Z,2.65
2022-09-28T10:53:27.075Z,3.50
2022-09-28T10:57:37.573Z,2.75
2022-09-28T11:01:39.108Z,4.03
2022-09-28T11:05:41.712Z,4.82
2022-09-28T11:09:50.910Z,5.82
2022-09-28T11:14:03.783Z,5.82
2022-09-28T11:18:31.338Z,2.80
2022-09-28T11:22:32.676Z,4.47
2022-09-28T11:26:40.780Z,4.88
2022-09-28T11:30:49.920Z,3.60
2022-09-28T11:34:59.556Z,3.05
2022-09-28T11:43:16.793Z,5.53
2022-09-28T11:47:27.798Z,3.25
2022-09-28T11:51:32.491Z,3.17
2022-09-28T11:55:40.656Z,2.38
2022-09-28T11:59:53.975Z,2.78
2022-09-28T12:04:25.041Z,5.80
2022-09-28T12:08:30.386Z,3.42
2022-09-28T12:12:39.761Z,2.70
2022-09-28T12:17:07.602Z,2.28
2022-09-28T12:21:15.784Z,1.42
2022-09-28T12:25:21.090Z,1.55
2022-09-28T12:29:57.093Z,1.70
2022-09-28T12:33:59.078Z,1.50
2022-09-28T12:38:09.204Z,3.78
2022-09-28T12:42:39.137Z,2.78
2022-09-28T12:46:59.229Z,3.50
2022-09-28T12:51:12.791Z,3.20
2022-09-28T12:55:28.339Z,3.03
2022-09-28T12:59:39.611Z,1.35
2022-09-28T13:04:02.707Z,2.05
2022-09-28T13:08:22.231Z,3.83
2022-09-28T13:12:47.657Z,1.77
2022-09-28T13:17:16.934Z,4.13
2022-09-28T13:21:28.144Z,2.55
2022-09-28T13:25:34.211Z,4.75
2022-09-28T13:29:36.755Z,1.85
2022-09-28T13:33:40.611Z,1.50
2022-09-28T13:37:42.157Z,1.75
2022-09-28T13:41:48.684Z,1.02
2022-09-28T13:45:54.747Z,2.83
2022-09-28T13:50:34.791Z,2.78
2022-09-28T13:55:01.042Z,2.83
2022-09-28T13:59:08.437Z,1.60
2022-09-28T14:03:24.195Z,1.13
2022-09-28T14:07:46.905Z,1.67
2022-09-28T14:12:03.687Z,1.30
2022-09-28T14:16:33.096Z,1.33
2022-09-28T14:20:35.420Z,4.07
2022-09-28T14:24:40.262Z,1.38
2022-09-28T14:29:20.272Z,1.83
2022-09-28T14:33:24.248Z,1.50
2022-09-28T14:37:51.181Z,1.48
2022-09-28T14:41:52.680Z,7.65
2022-09-28T14:46:14.369Z,1.45
2022-09-28T14:50:29.126Z,1.60
2022-09-28T14:54:41.843Z,1.83
2022-09-28T14:58:43.354Z,1.98
2022-09-28T15:02:52.402Z,2.63
2022-09-28T15:06:54.454Z,2.03
2022-09-28T15:10:58.662Z,1.30
2022-09-28T15:15:07.739Z,3.80
2022-09-28T15:19:39.853Z,2.08
2022-09-28T15:23:43.956Z,2.05
2022-09-28T15:27:47.323Z,3.33
2022-09-28T15:31:53.543Z,4.85
2022-09-28T15:36:01.985Z,2.97
2022-09-28T15:40:03.934Z,1.85
2022-09-28T15:44:32.867Z,3.53
2022-09-28T15:48:52.907Z,5.25
2022-09-28T15:52:59.011Z,2.10
2022-09-28T15:57:02.830Z,4.72
2022-09-28T16:01:36.280Z,3.10
2022-09-28T16:05:46.762Z,2.08
2022-09-28T16:10:02.882Z,1.73
2022-09-28T16:14:16.803Z,1.55
2022-09-28T16:18:21.456Z,2.03
2022-09-28T16:22:28.006Z,1.60
2022-09-28T16:26:38.906Z,2.20
2022-09-28T16:31:04.531Z,2.55
2022-09-28T16:35:26.067Z,2.05
2022-09-28T16:39:28.546Z,3.30
2022-09-28T16:43:36.181Z,2.47
2022-09-28T16:47:37.738Z,2.55
2022-09-28T16:51:40.129Z,2.08
2022-09-28T16:55:41.581Z,1.80
2022-09-28T16:59:43.071Z,5.20
2022-09-28T17:03:47.417Z,6.97
2022-09-28T17:07:54.753Z,3.78
2022-09-28T17:11:56.640Z,3.22
2022-09-28T17:15:58.513Z,2.92
2022-09-28T17:20:01.433Z,3.88
2022-09-28T17:24:02.864Z,4.47
2022-09-28T17:28:04.863Z,4.03
2022-09-28T17:32:16.676Z,5.78
2022-09-28T17:36:19.152Z,6.18
2022-09-28T17:40:28.167Z,5.82
2022-09-28T17:44:29.600Z,6.57
2022-09-28T17:48:31.236Z,6.68
2022-09-28T17:52:32.594Z,4.50
2022-09-28T17:56:35.293Z,4.93
2022-09-28T18:00:38.312Z,4.55
2022-09-28T18:04:51.670Z,6.10
2022-09-28T18:08:53.751Z,6.07
2022-09-28T18:12:55.101Z,5.60
2022-09-28T18:16:56.659Z,8.98
2022-09-28T18:21:00.399Z,6.82
2022-09-28T18:25:01.834Z,7.15
2022-09-28T18:29:03.225Z,6.00
2022-09-28T18:33:05.872Z,6.82
2022-09-28T18:37:07.352Z,6.20
2022-09-28T18:41:10.414Z,7.15
2022-09-28T18:45:11.853Z,6.75
2022-09-28T18:49:13.316Z,9.45
2022-09-28T18:53:14.928Z,9.20
2022-09-28T18:57:16.850Z,5.80
2022-09-28T19:01:36.290Z,5.82
2022-09-28T19:05:42.772Z,8.32
2022-09-28T19:09:44.599Z,7.80
2022-09-28T19:13:45.995Z,7.97
2022-09-28T19:17:47.906Z,9.18
2022-09-28T19:21:49.425Z,7.63
2022-09-28T19:25:50.856Z,8.90
2022-09-28T19:29:52.521Z,8.43
2022-09-28T19:33:53.871Z,10.02
2022-09-28T19:37:56.058Z,7.57
2022-09-28T19:41:59.475Z,7.60
2022-09-28T19:46:04.362Z,7.10
2022-09-28T19:50:07.039Z,10.00
2022-09-28T19:54:08.545Z,6.95
2022-09-28T19:58:09.961Z,9.52
2022-09-28T20:02:11.932Z,8.32
2022-09-28T20:06:17.210Z,7.95
2022-09-28T20:10:18.896Z,7.20
2022-09-28T20:14:22.483Z,11.57
2022-09-28T20:18:27.453Z,8.30
2022-09-28T20:22:29.338Z,7.30
2022-09-28T20:26:35.650Z,7.90
2022-09-28T20:30:37.282Z,6.43
2022-09-28T20:34:38.727Z,6.95
2022-09-28T20:38:40.822Z,8.40
2022-09-28T20:42:42.644Z,8.68
2022-09-28T20:46:44.402Z,7.72
2022-09-28T20:50:45.884Z,7.13
2022-09-28T20:54:47.290Z,6.50
2022-09-28T20:58:50.902Z,6.15
2022-09-28T21:02:52.918Z,7.18
2022-09-28T21:06:54.616Z,9.45
2022-09-28T21:10:56.030Z,8.52
2022-09-28T21:14:58.264Z,7.18
2022-09-28T21:19:00.934Z,7.15
2022-09-28T21:23:02.339Z,6.03
2022-09-28T21:27:03.910Z,6.05
2022-09-28T21:31:07.276Z,8.43
2022-09-28T21:35:09.078Z,9.38
2022-09-28T21:39:10.774Z,6.38
2022-09-28T21:43:12.301Z,7.75
2022-09-28T21:47:13.680Z,7.03
2022-09-28T21:51:15.443Z,7.45
2022-09-28T21:55:17.204Z,7.43
2022-09-28T21:59:18.594Z,8.50
2022-09-28T22:03:21.137Z,8.82
2022-09-28T22:07:22.516Z,8.10
2022-09-28T22:11:27.080Z,7.78
2022-09-28T22:15:31.252Z,7.28
2022-09-28T22:19:32.668Z,7.32
2022-09-28T22:23:34.516Z,8.10
2022-09-28T22:27:35.905Z,7.32
2022-09-28T22:31:39.552Z,8.77
2022-09-28T22:35:41.094Z,10.68
2022-09-28T22:39:42.456Z,7.53
2022-09-28T22:43:43.899Z,8.27
2022-09-28T22:47:45.311Z,8.68
2022-09-28T22:51:46.825Z,8.77
2022-09-28T22:55:48.473Z,6.95
2022-09-28T22:59:49.921Z,6.85
2022-09-28T23:03:52.618Z,6.90
2022-09-28T23:07:53.965Z,7.60
2022-09-28T23:11:55.367Z,7.80
2022-09-28T23:15:58.004Z,9.05
2022-09-28T23:19:59.472Z,7.13
2022-09-28T23:24:01.552Z,7.25
2022-09-28T23:28:03.204Z,8.68
2022-09-28T23:32:04.602Z,7.28
2022-09-28T23:36:07.688Z,6.90
2022-09-28T23:40:09.456Z,8.10
2022-09-28T23:44:10.925Z,7.93
2022-09-28T23:48:15.067Z,7.47
2022-09-28T23:52:16.576Z,8.32
2022-09-28T23:56:18.041Z,9.48
